createdAt,value
2022-10-27T00:02:21.226Z,15.50
2022-10-27T00:04:49.289Z,11.15
2022-10-27T00:07:17.147Z,9.52
2022-10-27T00:09:44.947Z,13.02
2022-10-27T00:12:14.235Z,15.57
2022-10-27T00:14:42.401Z,11.95
2022-10-27T00:17:10.230Z,9.35
2022-10-27T00:19:38.060Z,18.27
2022-10-27T00:22:05.901Z,10.40
2022-10-27T00:24:33.765Z,14.00
2022-10-27T00:27:01.583Z,15.10
2022-10-27T00:29:31.803Z,11.40
2022-10-27T00:31:59.783Z,14.32
2022-10-27T00:34:27.744Z,11.50
2022-10-27T00:36:55.781Z,11.88
2022-10-27T00:39:23.760Z,12.73
2022-10-27T00:41:51.671Z,12.27
2022-10-27T00:44:34.314Z,17.52
2022-10-27T00:47:05.418Z,10.15
2022-10-27T00:49:38.133Z,12.75
2022-10-27T00:52:08.504Z,13.55
2022-10-27T00:54:39.843Z,15.15
2022-10-27T00:57:08.824Z,15.05
2022-10-27T00:59:38.757Z,12.57
2022-10-27T01:02:07.788Z,15.52
2022-10-27T01:04:39.620Z,16.75
2022-10-27T01:07:07.699Z,12.05
2022-10-27T01:09:35.651Z,14.38
2022-10-27T01:12:03.440Z,14.35
2022-10-27T01:14:31.504Z,15.05
2022-10-27T01:17:11.545Z,16.67
2022-10-27T01:19:59.926Z,13.63
2022-10-27T01:22:30.313Z,12.00
2022-10-27T01:25:05.061Z,24.75
2022-10-27T01:27:45.792Z,13.63
2022-10-27T01:30:15.546Z,13.02
2022-10-27T01:32:57.424Z,11.68
2022-10-27T01:35:31.612Z,15.15
2022-10-27T01:38:04.797Z,14.90
2022-10-27T01:40:36.861Z,12.07
2022-10-27T01:43:08.738Z,15.48
2022-10-27T01:45:39.080Z,16.08
2022-10-27T01:48:09.440Z,15.38
2022-10-27T01:50:56.845Z,12.55
2022-10-27T01:53:27.670Z,14.48
2022-10-27T01:56:03.837Z,13.98
2022-10-27T01:58:49.405Z,15.32
2022-10-27T02:01:27.637Z,14.27
2022-10-27T02:04:01.340Z,15.30
2022-10-27T02:06:32.873Z,15.68
2022-10-27T02:09:04.625Z,15.05
2022-10-27T02:11:34.858Z,14.52
2022-10-27T02:14:02.944Z,15.88
2022-10-27T02:16:33.657Z,15.68
2022-10-27T02:19:06.551Z,15.50
2022-10-27T02:24:02.200Z,17.00
2022-10-27T02:26:33.591Z,18.23
2022-10-27T02:29:03.523Z,19.00
2022-10-27T02:31:34.525Z,20.70
2022-10-27T02:34:04.157Z,17.30
2022-10-27T02:36:32.396Z,16.02
2022-10-27T02:39:00.225Z,15.95
2022-10-27T02:41:28.086Z,19.02
2022-10-27T02:43:56.019Z,20.45
2022-10-27T02:46:23.851Z,18.00
2022-10-27T02:48:51.706Z,17.83
2022-10-27T02:51:20.913Z,19.00
2022-10-27T02:53:48.703Z,20.80
2022-10-27T02:56:16.553Z,18.52
2022-10-27T02:58:44.485Z,18.33
2022-10-27T03:01:12.504Z,20.52
2022-10-27T03:03:40.427Z,19.83
2022-10-27T03:06:08.327Z,22.02
2022-10-27T03:08:37.509Z,17.02
2022-10-27T03:11:05.450Z,23.08
2022-10-27T03:13:33.328Z,20.00
2022-10-27T03:16:01.137Z,28.10
2022-10-27T03:18:29.043Z,24.98
2022-10-27T03:20:56.936Z,22.17
2022-10-27T03:23:24.886Z,24.00
2022-10-27T03:25:57.859Z,21.45
2022-10-27T03:28:30.141Z,23.13
2022-10-27T03:30:58.112Z,23.45
2022-10-27T03:33:25.971Z,25.40
2022-10-27T03:35:53.828Z,22.25
2022-10-27T03:38:21.726Z,18.00
2022-10-27T03:40:49.568Z,22.52
2022-10-27T03:43:18.816Z,23.83
2022-10-27T03:45:48.820Z,20.02
2022-10-27T03:48:17.091Z,21.20
2022-10-27T03:50:47.086Z,19.98
2022-10-27T03:53:15.281Z,19.45
2022-10-27T03:55:43.200Z,23.15
2022-10-27T03:58:16.443Z,23.40
2022-10-27T04:00:47.406Z,19.80
2022-10-27T04:03:15.371Z,23.05
2022-10-27T04:05:43.194Z,19.30
2022-10-27T04:08:11.137Z,23.50
2022-10-27T04:10:39.112Z,21.95
2022-10-27T04:13:06.930Z,28.70
2022-10-27T04:15:34.854Z,21.27
2022-10-27T04:18:04.318Z,21.45
2022-10-27T04:20:32.441Z,20.77
2022-10-27T04:23:00.706Z,18.45
2022-10-27T04:25:28.630Z,16.33
2022-10-27T04:28:02.077Z,21.25
2022-10-27T04:30:30.001Z,18.48
2022-10-27T04:32:58.318Z,23.75
2022-10-27T04:35:27.730Z,19.92
2022-10-27T04:37:56.410Z,24.13
2022-10-27T04:40:24.454Z,18.48
2022-10-27T04:42:52.333Z,19.52
2022-10-27T04:45:20.316Z,20.52
2022-10-27T04:47:48.355Z,18.10
2022-10-27T04:50:17.314Z,20.80
2022-10-27T04:52:55.345Z,24.23
2022-10-27T04:55:23.538Z,20.40
2022-10-27T04:57:51.451Z,17.75
2022-10-27T05:00:19.644Z,21.08
2022-10-27T05:02:53.934Z,16.75
2022-10-27T05:05:22.616Z,18.65
2022-10-27T05:07:55.833Z,15.70
2022-10-27T05:10:23.984Z,22.08
2022-10-27T05:12:52.445Z,17.35
2022-10-27T05:15:20.914Z,18.65
2022-10-27T05:17:49.176Z,17.75
2022-10-27T05:20:17.591Z,15.50
2022-10-27T05:22:45.498Z,15.82
2022-10-27T05:25:14.799Z,19.05
2022-10-27T05:27:42.632Z,21.90
2022-10-27T05:30:13.062Z,18.95
2022-10-27T05:32:45.091Z,19.45
2022-10-27T05:35:15.486Z,18.15
2022-10-27T05:37:45.469Z,21.60
2022-10-27T05:40:15.590Z,21.15
2022-10-27T05:42:51.251Z,22.48
2022-10-27T05:45:20.121Z,18.10
2022-10-27T05:47:48.019Z,16.30
2022-10-27T05:50:16.066Z,16.17
2022-10-27T05:52:47.002Z,18.80
2022-10-27T05:55:16.440Z,16.52
2022-10-27T05:57:44.291Z,19.10
2022-10-27T06:00:12.562Z,22.38
2022-10-27T06:02:40.465Z,21.15
2022-10-27T06:05:09.004Z,20.23
2022-10-27T06:07:36.879Z,14.07
2022-10-27T06:10:05.337Z,18.65
2022-10-27T06:12:34.615Z,21.15
2022-10-27T06:15:02.696Z,19.52
2022-10-27T06:17:30.582Z,22.80
2022-10-27T06:19:58.455Z,20.33
2022-10-27T06:22:26.240Z,29.98
2022-10-27T06:24:54.128Z,25.85
2022-10-27T06:27:21.946Z,23.15
2022-10-27T06:29:51.191Z,30.95
2022-10-27T06:32:19.053Z,25.38
2022-10-27T06:34:47.023Z,23.45
2022-10-27T06:37:14.819Z,26.27
2022-10-27T06:39:42.954Z,22.77
2022-10-27T06:42:10.841Z,23.25
2022-10-27T06:44:40.488Z,20.60
2022-10-27T06:47:09.761Z,21.25
2022-10-27T06:49:37.643Z,17.77
2022-10-27T06:52:05.840Z,17.38
2022-10-27T06:54:33.698Z,21.85
2022-10-27T06:57:01.555Z,20.38
2022-10-27T06:59:29.438Z,23.50
2022-10-27T07:01:57.390Z,26.58
2022-10-27T07:04:26.671Z,21.00
2022-10-27T07:06:54.530Z,18.45
2022-10-27T07:09:22.450Z,23.20
2022-10-27T07:11:50.244Z,18.98
2022-10-27T07:14:18.088Z,18.80
2022-10-27T07:16:45.869Z,21.15
2022-10-27T07:19:13.760Z,22.77
2022-10-27T07:21:43.100Z,25.95
2022-10-27T07:24:14.387Z,20.77
2022-10-27T07:26:42.563Z,22.15
2022-10-27T07:29:10.401Z,23.85
2022-10-27T07:31:39.027Z,24.40
2022-10-27T07:34:06.952Z,19.33
2022-10-27T07:36:34.814Z,22.60
2022-10-27T07:39:04.833Z,20.25
2022-10-27T07:41:32.724Z,23.88
2022-10-27T07:44:00.602Z,16.75
2022-10-27T07:46:28.509Z,18.38
2022-10-27T07:48:56.379Z,18.17
2022-10-27T07:51:24.331Z,17.13
2022-10-27T07:53:55.520Z,21.20
2022-10-27T07:56:27.237Z,17.05
2022-10-27T07:58:55.111Z,22.98
2022-10-27T08:01:23.057Z,18.65
2022-10-27T08:03:51.932Z,19.83
2022-10-27T08:06:20.590Z,14.35
2022-10-27T08:08:48.654Z,17.55
2022-10-27T08:11:16.538Z,17.40
2022-10-27T08:13:45.902Z,15.63
2022-10-27T08:16:13.808Z,15.68
2022-10-27T08:18:41.770Z,15.13
2022-10-27T08:21:09.637Z,20.45
2022-10-27T08:23:38.454Z,11.75
2022-10-27T08:26:06.516Z,18.60
2022-10-27T08:28:34.347Z,12.40
2022-10-27T08:31:03.637Z,12.73
2022-10-27T08:33:31.613Z,24.60
2022-10-27T08:36:02.214Z,11.10
2022-10-27T08:38:32.830Z,15.52
2022-10-27T08:41:24.064Z,14.80
2022-10-27T08:44:10.548Z,17.02
2022-10-27T08:46:44.220Z,13.23
2022-10-27T08:49:20.816Z,9.18
2022-10-27T08:51:49.604Z,12.98
2022-10-27T08:54:17.462Z,12.85
2022-10-27T08:56:45.963Z,15.23
2022-10-27T08:59:16.213Z,15.50
2022-10-27T09:01:49.841Z,10.75
2022-10-27T09:04:25.647Z,11.27
2022-10-27T09:07:03.827Z,13.55
2022-10-27T09:09:36.433Z,13.75
2022-10-27T09:12:12.155Z,12.43
2022-10-27T09:15:04.439Z,14.75
2022-10-27T09:17:35.682Z,11.35
2022-10-27T09:20:07.717Z,10.32
2022-10-27T09:22:39.104Z,18.00
2022-10-27T09:25:15.205Z,11.55
2022-10-27T09:27:43.734Z,10.43
2022-10-27T09:30:14.025Z,10.27
2022-10-27T09:32:47.614Z,11.73
2022-10-27T09:35:18.996Z,8.35
2022-10-27T09:37:49.220Z,8.43
2022-10-27T09:40:19.019Z,12.90
2022-10-27T09:42:48.120Z,10.35
2022-10-27T09:45:17.948Z,7.38
2022-10-27T09:47:50.039Z,12.30
2022-10-27T09:50:20.608Z,27.33
2022-10-27T09:52:48.761Z,10.50
2022-10-27T09:55:17.665Z,10.15
2022-10-27T09:57:47.455Z,13.98
2022-10-27T10:00:27.029Z,9.52
2022-10-27T10:05:32.617Z,11.60
2022-10-27T10:08:14.263Z,6.93
2022-10-27T10:10:54.846Z,8.18
2022-10-27T10:13:23.769Z,7.47
2022-10-27T10:16:07.393Z,9.55
2022-10-27T10:18:37.074Z,13.35
2022-10-27T10:21:06.368Z,7.22
2022-10-27T10:23:36.054Z,5.82
2022-10-27T10:26:06.960Z,9.68
2022-10-27T10:28:36.487Z,8.23
2022-10-27T10:31:06.872Z,8.27
2022-10-27T10:33:37.846Z,8.38
2022-10-27T10:36:19.563Z,10.48
2022-10-27T10:38:51.673Z,8.80
2022-10-27T10:41:21.156Z,6.25
2022-10-27T10:44:09.211Z,14.48
2022-10-27T10:46:37.889Z,10.70
2022-10-27T10:49:07.947Z,8.25
2022-10-27T10:51:36.913Z,7.35
2022-10-27T10:54:08.194Z,11.43
2022-10-27T10:56:37.541Z,8.25
2022-10-27T10:59:08.962Z,7.78
2022-10-27T11:01:45.929Z,6.13
2022-10-27T11:04:18.056Z,9.63
2022-10-27T11:07:00.439Z,5.55
2022-10-27T11:09:30.293Z,7.00
2022-10-27T11:11:58.454Z,11.00
2022-10-27T11:14:26.951Z,10.18
2022-10-27T11:17:00.245Z,10.35
2022-10-27T11:19:36.363Z,7.65
2022-10-27T11:22:06.875Z,9.88
2022-10-27T11:24:40.638Z,6.22
2022-10-27T11:27:13.993Z,7.10
2022-10-27T11:29:46.239Z,6.95
2022-10-27T11:32:17.947Z,5.45
2022-10-27T11:34:51.634Z,11.13
2022-10-27T11:37:23.574Z,8.20
2022-10-27T11:39:55.338Z,9.48
2022-10-27T11:42:29.010Z,10.03
2022-10-27T11:45:04.515Z,7.85
2022-10-27T11:47:34.788Z,10.75
2022-10-27T11:50:07.236Z,11.70
2022-10-27T11:52:37.954Z,8.05
2022-10-27T11:55:08.034Z,9.20
2022-10-27T11:57:43.205Z,10.93
2022-10-27T12:00:16.793Z,8.23
2022-10-27T12:03:21.215Z,9.00
2022-10-27T12:05:54.795Z,9.55
2022-10-27T12:11:09.374Z,7.95
2022-10-27T12:13:42.848Z,9.60
2022-10-27T12:16:16.703Z,7.07
2022-10-27T12:21:20.471Z,6.57
2022-10-27T12:23:54.335Z,10.60
2022-10-27T12:26:26.885Z,8.02
2022-10-27T12:28:55.836Z,9.48
2022-10-27T12:31:26.688Z,9.57
2022-10-27T12:33:57.294Z,11.63
2022-10-27T12:39:09.347Z,10.93
2022-10-27T12:41:41.836Z,9.65
2022-10-27T12:44:18.552Z,6.68
2022-10-27T12:47:02.730Z,8.77
2022-10-27T12:49:36.775Z,11.20
2022-10-27T12:52:12.071Z,5.85
2022-10-27T12:54:52.629Z,5.90
2022-10-27T12:57:32.602Z,5.22
2022-10-27T13:00:06.382Z,7.78
2022-10-27T13:02:37.370Z,9.55
2022-10-27T13:05:26.822Z,7.57
2022-10-27T13:08:16.728Z,4.32
2022-10-27T13:11:01.913Z,7.93
2022-10-27T13:13:57.941Z,5.25
2022-10-27T13:16:33.267Z,4.45
2022-10-27T13:19:25.175Z,6.95
2022-10-27T13:21:57.621Z,7.15
2022-10-27T13:24:32.055Z,4.60
2022-10-27T13:27:03.789Z,10.75
2022-10-27T13:29:38.430Z,7.50
2022-10-27T13:32:32.869Z,6.63
2022-10-27T13:35:35.751Z,11.75
2022-10-27T13:38:22.383Z,8.35
2022-10-27T13:40:52.883Z,12.32
2022-10-27T13:43:49.112Z,7.45
2022-10-27T13:46:19.421Z,9.43
2022-10-27T13:48:49.054Z,7.70
2022-10-27T13:51:48.503Z,10.43
2022-10-27T13:54:52.070Z,12.70
2022-10-27T13:57:44.600Z,7.75
2022-10-27T14:00:15.129Z,8.00
2022-10-27T14:02:55.033Z,6.38
2022-10-27T14:05:34.333Z,8.90
2022-10-27T14:08:02.571Z,10.27
2022-10-27T14:10:30.932Z,9.57
2022-10-27T14:13:00.245Z,8.35
2022-10-27T14:15:29.541Z,8.80
2022-10-27T14:17:58.151Z,9.43
2022-10-27T14:20:28.784Z,11.30
2022-10-27T14:23:03.915Z,8.57
2022-10-27T14:25:32.737Z,8.63
2022-10-27T14:28:15.299Z,7.22
2022-10-27T14:30:43.588Z,8.93
2022-10-27T14:33:18.939Z,6.05
2022-10-27T14:35:46.846Z,9.57
2022-10-27T14:38:16.710Z,5.78
2022-10-27T14:40:44.531Z,5.28
2022-10-27T14:43:20.166Z,7.15
2022-10-27T14:45:50.551Z,12.15
2022-10-27T14:48:25.390Z,8.73
2022-10-27T14:50:54.144Z,6.78
2022-10-27T14:53:27.276Z,10.77
2022-10-27T14:56:07.467Z,6.88
2022-10-27T14:58:36.782Z,6.38
2022-10-27T15:01:04.719Z,8.32
2022-10-27T15:03:35.844Z,8.32
2022-10-27T15:06:03.919Z,12.45
2022-10-27T15:08:36.185Z,9.73
2022-10-27T15:11:07.231Z,13.50
2022-10-27T15:13:36.691Z,23.33
2022-10-27T15:16:11.487Z,15.50
2022-10-27T15:18:41.394Z,11.25
2022-10-27T15:21:11.478Z,19.13
2022-10-27T15:23:42.105Z,10.38
2022-10-27T15:26:13.958Z,10.68
2022-10-27T15:28:43.496Z,16.13
2022-10-27T15:31:11.557Z,10.27
2022-10-27T15:33:41.381Z,9.52
2022-10-27T15:36:19.005Z,17.70
2022-10-27T15:38:50.154Z,11.15
2022-10-27T15:41:21.683Z,12.32
2022-10-27T15:43:52.106Z,10.80
2022-10-27T15:46:30.880Z,8.80
2022-10-27T15:49:23.615Z,13.95
2022-10-27T15:51:53.148Z,12.00
2022-10-27T15:54:31.850Z,16.25
2022-10-27T15:56:59.875Z,11.82
2022-10-27T15:59:29.860Z,12.25
2022-10-27T16:02:01.429Z,13.75
2022-10-27T16:04:31.822Z,11.73
2022-10-27T16:07:31.620Z,10.50
2022-10-27T16:09:59.774Z,13.60
2022-10-27T16:12:38.246Z,14.48
2022-10-27T16:15:16.773Z,11.73
2022-10-27T16:17:46.947Z,12.35
2022-10-27T16:20:18.007Z,10.18
2022-10-27T16:22:46.040Z,11.75
2022-10-27T16:25:14.096Z,15.73
2022-10-27T16:27:42.189Z,14.65
2022-10-27T16:30:16.922Z,14.10
2022-10-27T16:32:46.025Z,13.70
2022-10-27T16:35:14.886Z,12.10
2022-10-27T16:37:42.823Z,17.60
2022-10-27T16:40:13.549Z,12.75
2022-10-27T16:42:44.387Z,10.18
2022-10-27T16:45:15.058Z,8.13
2022-10-27T16:47:43.397Z,9.48
2022-10-27T16:50:11.681Z,10.40
2022-10-27T16:52:39.822Z,11.80
2022-10-27T16:55:10.060Z,12.85
2022-10-27T16:57:38.148Z,11.60
2022-10-27T17:00:07.480Z,10.93
2022-10-27T17:02:36.850Z,11.40
2022-10-27T17:05:05.048Z,10.70
2022-10-27T17:07:32.981Z,10.20
2022-10-27T17:10:00.975Z,11.68
2022-10-27T17:12:29.134Z,10.95
2022-10-27T17:14:56.997Z,14.00
2022-10-27T17:17:25.027Z,14.07
2022-10-27T17:19:54.238Z,10.20
2022-10-27T17:22:22.134Z,9.90
2022-10-27T17:24:50.021Z,15.55
2022-10-27T17:27:17.887Z,10.20
2022-10-27T17:29:46.916Z,10.13
2022-10-27T17:32:15.421Z,9.77
2022-10-27T17:34:43.443Z,9.43
2022-10-27T17:37:13.989Z,10.93
2022-10-27T17:39:41.924Z,16.35
2022-10-27T17:42:10.261Z,10.10
2022-10-27T17:44:38.154Z,8.25
2022-10-27T17:47:07.394Z,13.60
2022-10-27T17:49:35.318Z,11.80
2022-10-27T17:52:03.343Z,13.35
2022-10-27T17:54:32.579Z,11.73
2022-10-27T17:57:00.478Z,12.10
2022-10-27T17:59:28.565Z,10.85
2022-10-27T18:01:56.500Z,15.88
2022-10-27T18:04:24.466Z,12.32
2022-10-27T18:06:52.358Z,11.10
2022-10-27T18:09:20.357Z,9.23
2022-10-27T18:11:49.594Z,8.80
2022-10-27T18:14:19.300Z,12.38
2022-10-27T18:16:47.520Z,13.30
2022-10-27T18:19:16.903Z,11.07
2022-10-27T18:21:46.180Z,13.65
2022-10-27T18:24:15.674Z,13.45
2022-10-27T18:26:45.824Z,12.68
2022-10-27T18:29:17.001Z,12.88
2022-10-27T18:31:46.772Z,11.95
2022-10-27T18:34:15.780Z,8.65
2022-10-27T18:36:45.382Z,16.00
2022-10-27T18:39:16.695Z,11.95
2022-10-27T18:41:45.289Z,8.60
2022-10-27T18:44:14.831Z,12.05
2022-10-27T18:46:42.666Z,14.35
2022-10-27T18:49:16.090Z,14.65
2022-10-27T18:51:53.170Z,14.02
2022-10-27T18:54:21.176Z,9.13
2022-10-27T18:56:49.256Z,11.80
2022-10-27T18:59:18.570Z,11.20
2022-10-27T19:01:47.653Z,12.75
2022-10-27T19:04:15.878Z,9.00
2022-10-27T19:06:43.879Z,13.57
2022-10-27T19:09:12.593Z,10.70
2022-10-27T19:11:40.513Z,12.30
2022-10-27T19:14:08.455Z,11.35
2022-10-27T19:16:38.197Z,13.45
2022-10-27T19:19:06.361Z,9.82
2022-10-27T19:21:34.388Z,7.97
2022-10-27T19:24:03.040Z,11.15
2022-10-27T19:26:32.347Z,12.90
2022-10-27T19:29:00.726Z,13.20
2022-10-27T19:31:30.824Z,13.82
2022-10-27T19:34:00.410Z,10.38
2022-10-27T19:36:29.756Z,10.90
2022-10-27T19:38:58.487Z,13.95
2022-10-27T19:41:28.891Z,12.38
2022-10-27T19:43:57.059Z,9.82
2022-10-27T19:46:26.034Z,10.73
2022-10-27T19:48:54.644Z,14.90
2022-10-27T19:51:26.069Z,13.85
2022-10-27T19:53:56.374Z,14.75
2022-10-27T19:56:25.521Z,13.70
2022-10-27T19:58:54.349Z,14.65
2022-10-27T20:01:23.916Z,11.00
2022-10-27T20:03:52.995Z,16.38
2022-10-27T20:06:21.090Z,12.95
2022-10-27T20:08:55.831Z,12.73
2022-10-27T20:11:26.104Z,10.30
2022-10-27T20:13:55.480Z,11.70
2022-10-27T20:16:25.299Z,12.48
2022-10-27T20:18:53.542Z,10.10
2022-10-27T20:21:21.602Z,12.75
2022-10-27T20:23:50.991Z,14.10
2022-10-27T20:26:34.404Z,13.07
2022-10-27T20:31:30.353Z,14.18
2022-10-27T20:33:58.947Z,12.80
2022-10-27T20:36:27.484Z,13.57
2022-10-27T20:38:57.600Z,10.93
2022-10-27T20:41:27.819Z,11.43
2022-10-27T20:43:56.181Z,11.65
2022-10-27T20:46:29.065Z,11.57
2022-10-27T20:48:58.213Z,10.10
2022-10-27T20:51:27.779Z,15.27
2022-10-27T20:53:57.102Z,9.85
2022-10-27T20:56:26.698Z,12.50
2022-10-27T20:58:54.799Z,8.35
2022-10-27T21:01:28.819Z,18.63
2022-10-27T21:03:57.871Z,9.95
2022-10-27T21:06:27.179Z,16.70
2022-10-27T21:08:55.645Z,11.52
2022-10-27T21:11:25.209Z,12.00
2022-10-27T21:13:54.466Z,13.20
2022-10-27T21:16:22.826Z,11.93
2022-10-27T21:18:51.351Z,9.25
2022-10-27T21:21:19.986Z,10.18
2022-10-27T21:23:48.369Z,8.63
2022-10-27T21:26:16.584Z,11.20
2022-10-27T21:28:49.730Z,9.00
2022-10-27T21:31:17.582Z,15.00
2022-10-27T21:33:45.537Z,11.20
2022-10-27T21:36:13.834Z,8.93
2022-10-27T21:38:42.652Z,9.50
2022-10-27T21:41:12.037Z,9.85
2022-10-27T21:43:41.350Z,8.68
2022-10-27T21:46:12.197Z,12.57
2022-10-27T21:48:40.113Z,12.13
2022-10-27T21:51:08.360Z,9.88
2022-10-27T21:53:36.199Z,11.02
2022-10-27T21:56:05.904Z,11.02
2022-10-27T21:58:35.963Z,12.30
2022-10-27T22:01:08.199Z,7.05
2022-10-27T22:03:37.976Z,12.25
2022-10-27T22:06:06.823Z,11.02
2022-10-27T22:08:36.032Z,9.02
2022-10-27T22:11:04.783Z,11.60
2022-10-27T22:13:33.001Z,8.70
2022-10-27T22:16:07.768Z,10.13
2022-10-27T22:18:37.419Z,11.70
2022-10-27T22:21:06.032Z,9.60
2022-10-27T22:23:33.931Z,6.97
2022-10-27T22:26:05.756Z,9.15
2022-10-27T22:28:33.891Z,9.48
2022-10-27T22:31:06.177Z,12.77
2022-10-27T22:33:34.498Z,10.35
2022-10-27T22:36:04.641Z,12.57
2022-10-27T22:38:32.906Z,8.48
2022-10-27T22:41:01.784Z,9.05
2022-10-27T22:43:29.790Z,8.02
2022-10-27T22:45:57.773Z,7.88
2022-10-27T22:48:26.175Z,10.35
2022-10-27T22:51:00.367Z,10.85
2022-10-27T22:53:31.678Z,9.13
2022-10-27T22:56:04.404Z,10.63
2022-10-27T22:58:32.319Z,10.35
2022-10-27T23:01:05.168Z,10.25
2022-10-27T23:06:01.490Z,12.85
2022-10-27T23:08:30.843Z,9.68
2022-10-27T23:10:59.893Z,12.60
2022-10-27T23:13:28.998Z,11.10
2022-10-27T23:15:57.558Z,12.27
2022-10-27T23:18:26.133Z,10.25
2022-10-27T23:20:56.236Z,10.68
2022-10-27T23:23:24.072Z,8.85
2022-10-27T23:25:53.482Z,10.68
2022-10-27T23:28:22.154Z,11.07
2022-10-27T23:30:50.156Z,9.93
2022-10-27T23:33:18.538Z,10.05
2022-10-27T23:35:56.425Z,8.73
2022-10-27T23:40:59.666Z,9.10
2022-10-27T23:43:28.882Z,10.82
2022-10-27T23:46:01.388Z,9.05
2022-10-27T23:48:30.074Z,9.48
2022-10-27T23:50:58.161Z,10.88
2022-10-27T23:53:26.544Z,9.88
2022-10-27T23:55:55.807Z,9.93
2022-10-27T23:58:25.461Z,12.50
